KRKP/RKP METAR and TAF weather

Enter ICAO airport designator
Station Type Date Time Source
KRKP METAR 2020/09/22 01:53 UTC NOAA

KRKP 220153Z AUTO 31019G28KT 7SM -RA BKN008 OVC011 22/22 A2979 RMK AO2 PK WND 32029/0137 CIG 005V010 SLP090 P0000 T02220217


Station Type Date Time Source
KRKP Decoded METAR 2020/09/22 01:53 UTC NOAA

ROCKPORT ARANSAS COUNTY AIRPORT , TX, United States (KRKP) 28-05N 97-03W 6M
Sep 21, 2020 - 09:53 PM EDT / 2020.09.22 0153 UTC
Wind: from the NW (310 degrees) at 22 MPH (19 KT) gusting to 32 MPH (28 KT):0
Visibility: 7 mile(s):0
Sky conditions: overcast
Weather: light rain
Precipitation last hour: A trace
Temperature: 72.0 F (22.2 C)
Dew Point: 71.1 F (21.7 C)
Relative Humidity: 96%
Pressure (altimeter): 29.79 in. Hg (1008 hPa)
ob: KRKP 220153Z AUTO 31019G28KT 7SM -RA BKN008 OVC011 22/22 A2979 RMK AO2 PK WND 32029/0137 CIG 005V010 SLP090 P0000 T02220217
cycle: 2

Station Type Date Time Source
KRKP TAF UTC NOAA

Error!

Example: see airport list